| time (UTC) | temp F | wind direction | speed knots | gust knots | rain 1hr in | rain 24hr in | rain mn in | humidity % | barometer mb |
| 20260507083046 | 45 | 272 | 6.1 | 9.6 | 0.06 | 0.42 | 0.28 | 92 | 1012.8 |
| 20260507080036 | 43 | 253 | 0.9 | 7.0 | 0.06 | 0.39 | 0.26 | 91 | 1012.7 |
| 20260507073050 | 43 | 321 | 1.7 | 6.1 | 0.06 | 0.37 | 0.23 | 89 | 1012.5 |
| 20260507071535 | 43 | 340 | 0.9 | 5.2 | 0.06 | 0.35 | 0.21 | 91 | 1012.4 |
| 20260507064539 | 42 | 291 | 3.5 | 6.1 | 0.07 | 0.32 | 0.18 | 96 | 1012.2 |
| 20260507061601 | 41 | 134 | 0.0 | 0.0 | 0.06 | 0.29 | 0.15 | 93 | 1012.3 |
| 20260507054535 | 35 | 134 | 0.0 | 0.0 | 0.03 | 0.26 | 0.11 | 93 | 1012.0 |
| 20260507051543 | 31 | 134 | 0.0 | 0.0 | 0.03 | 0.24 | 0.09 | 95 | 1011.4 |
| 20260507050032 | 31 | 134 | 0.0 | 0.0 | 0.04 | 0.24 | 0.09 | 95 | 1011.1 |
| 20260507043042 | 31 | 134 | 0.0 | 0.0 | 0.03 | 0.23 | 0.07 | 96 | 1011.0 |
| 20260507041542 | 31 | 134 | 0.0 | 0.0 | 0.03 | 0.22 | 0.06 | 96 | 1010.9 |
| 20260507034607 | 31 | 134 | 0.0 | 1.7 | 0.01 | 0.20 | 0.04 | 96 | 1010.6 |
| 20260507033052 | 31 | 138 | 0.0 | 1.7 | 0.02 | 0.20 | 0.04 | 96 | 1010.6 |
| 20260507031549 | 32 | 138 | 0.0 | 0.0 | 0.01 | 0.19 | 0.03 | 96 | 1010.6 |
| 20260507030030 | 32 | 138 | 0.0 | 0.9 | 0.01 | 0.19 | 0.03 | 96 | 1010.5 |
| 20260507023032 | 33 | 138 | 0.0 | 1.7 | 0.00 | 0.19 | 0.02 | 96 | 1010.5 |
| 20260507021530 | 33 | 131 | 0.0 | 1.7 | 0.01 | 0.19 | 0.02 | 96 | 1010.5 |
| 20260507014559 | 34 | 137 | 1.7 | 3.5 | 0.01 | 0.20 | 0.02 | 96 | 1010.4 |
| 20260507013032 | 35 | 108 | 0.0 | 2.6 | 0.01 | 0.20 | 0.02 | 97 | 1010.6 |
| 20260507010053 | 37 | 123 | 2.6 | 8.7 | 0.00 | 0.19 | 0.02 | 94 | 1010.6 |
| 20260507004539 | 36 | 120 | 0.9 | 4.3 | 0.01 | 0.19 | 0.02 | 97 | 1010.6 |
| 20260507001544 | 37 | 237 | 0.9 | 7.0 | 0.01 | 0.19 | 0.02 | 96 | 1010.7 |
| 20260506234546 | 37 | 199 | 0.9 | 6.1 | 0.01 | 0.19 | 0.01 | 97 | 1010.7 |
| 20260506233049 | 39 | 91 | 2.6 | 8.7 | 0.01 | 0.19 | 0.01 | 96 | 1010.6 |
| 20260506231541 | 39 | 180 | 1.7 | 7.0 | 0.01 | 0.19 | 0.01 | 96 | 1010.9 |
| 20260506224542 | 41 | 235 | 0.9 | 3.5 | 0.00 | 0.19 | 0.00 | 96 | 1011.0 |
| 20260506223035 | 40 | 134 | 0.0 | 3.5 | 0.01 | 0.19 | 0.00 | 96 | 1011.0 |
| 20260506220121 | 41 | 85 | 0.0 | 3.5 | 0.01 | 0.19 | 0.00 | 96 | 1011.1 |
| 20260506213041 | 42 | 119 | 0.9 | 7.0 | 0.01 | 0.19 | 0.18 | 95 | 1011.1 |
| 20260506210055 | 42 | 54 | 0.9 | 2.6 | 0.01 | 0.19 | 0.18 | 95 | 1011.0 |
| 20260506204559 | 42 | 257 | 0.0 | 6.1 | 0.01 | 0.20 | 0.18 | 95 | 1010.8 |
| 20260506201547 | 42 | 135 | 0.9 | 5.2 | 0.01 | 0.19 | 0.17 | 95 | 1010.9 |
| 20260506194558 | 41 | 115 | 2.6 | 7.0 | 0.01 | 0.20 | 0.17 | 95 | 1010.5 |
| 20260506193044 | 41 | 69 | 2.6 | 4.3 | 0.01 | 0.19 | 0.17 | 96 | 1010.4 |
| 20260506191541 | 42 | 287 | 7.0 | 14.8 | 0.01 | 0.19 | 0.17 | 96 | 1010.3 |
| 20260506184552 | 42 | 131 | 3.5 | 7.0 | 0.01 | 0.20 | 0.17 | 96 | 1010.0 |
| 20260506183044 | 42 | 125 | 2.6 | 7.0 | 0.02 | 0.20 | 0.16 | 96 | 1009.9 |
| 20260506173104 | 44 | 83 | 0.0 | 4.3 | 0.01 | 0.19 | 0.15 | 96 | 1009.7 |
| 20260506171532 | 44 | 111 | 0.9 | 6.1 | 0.02 | 0.19 | 0.15 | 96 | 1009.4 |
| 20260506170034 | 45 | 291 | 1.7 | 5.2 | 0.01 | 0.18 | 0.14 | 96 | 1009.3 |
| 20260506163105 | 44 | 268 | 1.7 | 7.0 | 0.02 | 0.19 | 0.14 | 96 | 1009.3 |
| 20260506161542 | 44 | 111 | 1.7 | 7.0 | 0.01 | 0.18 | 0.13 | 96 | 1009.2 |
| 20260506160034 | 45 | 120 | 1.7 | 7.0 | 0.01 | 0.18 | 0.13 | 96 | 1009.4 |
| 20260506154523 | 45 | 255 | 5.2 | 10.4 | 0.02 | 0.20 | 0.13 | 96 | 1009.3 |
| 20260506151557 | 45 | 131 | 0.0 | 5.2 | 0.01 | 0.19 | 0.13 | 96 | 1009.3 |
| 20260506150047 | 44 | 125 | 2.6 | 7.0 | 0.01 | 0.19 | 0.12 | 96 | 1009.5 |
| 20260506143053 | 42 | 147 | 1.7 | 6.1 | 0.01 | 0.20 | 0.12 | 94 | 1009.5 |
| 20260506141551 | 41 | 34 | 2.6 | 7.0 | 0.01 | 0.20 | 0.12 | 95 | 1009.7 |
| 20260506140044 | 41 | 349 | 0.9 | 7.8 | 0.02 | 0.20 | 0.12 | 95 | 1009.6 |
| 20260506133032 | 42 | 95 | 3.5 | 10.4 | 0.01 | 0.20 | 0.11 | 94 | 1009.8 |
| 20260506130051 | 44 | 252 | 2.6 | 10.4 | 0.01 | 0.20 | 0.10 | 93 | 1009.8 |
| 20260506123052 | 44 | 152 | 3.5 | 13.9 | 0.02 | 0.21 | 0.10 | 93 | 1009.8 |
| 20260506121542 | 44 | 121 | 2.6 | 8.7 | 0.01 | 0.20 | 0.09 | 93 | 1010.0 |
| 20260506114551 | 44 | 218 | 3.5 | 8.7 | 0.01 | 0.22 | 0.09 | 93 | 1010.0 |
| 20260506113041 | 44 | 135 | 4.3 | 8.7 | 0.01 | 0.21 | 0.09 | 93 | 1010.0 |
| 20260506111533 | 44 | 124 | 4.3 | 8.7 | 0.01 | 0.21 | 0.09 | 93 | 1010.2 |
| 20260506110031 | 44 | 163 | 2.6 | 9.6 | 0.01 | 0.21 | 0.09 | 93 | 1010.4 |
| 20260506103059 | 43 | 107 | 2.6 | 9.6 | 0.01 | 0.23 | 0.08 | 93 | 1010.6 |
| 20260506101541 | 43 | 137 | 2.6 | 7.8 | 0.01 | 0.23 | 0.08 | 93 | 1010.6 |
| 20260506100039 | 42 | 111 | 2.6 | 7.8 | 0.02 | 0.23 | 0.08 | 93 | 1010.6 |
| 20260506093107 | 42 | 110 | 7.0 | 12.2 | 0.01 | 0.23 | 0.07 | 93 | 1010.5 |
| 20260506091538 | 42 | 109 | 4.3 | 8.7 | 0.01 | 0.23 | 0.07 | 94 | 1010.7 |
| 20260506084558 | 41 | 127 | 2.6 | 7.0 | 0.01 | 0.24 | 0.06 | 94 | 1010.4 |